Time;durP1;ratioP1;P1;durP2;ratioP2;P2;SDS_P1;SDS_P2;PMS_P1;PMS_P2;Temp;Humidity;BMP_temperature;BMP_pressure;BME280_temperature;BME280_humidity;BME280_pressure;Samples;Min_cycle;Max_cycle;Signal;HPM_P1;HPM_P2
2023/10/06 00:01:00;;;;;;;7.25;4.72;;;17.00;99.90;;;;;;5008274;28;20026;-62
2023/10/06 00:03:25;;;;;;;13.70;4.78;;;17.00;99.90;;;;;;4995643;28;20027;-62
2023/10/06 00:05:53;;;;;;;7.85;4.75;;;17.00;99.90;;;;;;4996595;28;20041;-62
2023/10/06 00:08:20;;;;;;;11.43;5.03;;;17.00;99.90;;;;;;4997059;28;20038;-62
2023/10/06 00:10:54;;;;;;;11.18;5.07;;;17.00;99.90;;;;;;4996631;28;20018;-62
2023/10/06 00:13:24;;;;;;;11.00;5.15;;;16.90;99.90;;;;;;4996877;28;20039;-63
2023/10/06 00:15:50;;;;;;;12.38;5.03;;;17.00;99.90;;;;;;4996801;28;20117;-61
2023/10/06 00:18:19;;;;;;;9.68;4.95;;;16.90;99.90;;;;;;4996892;28;20029;-62
2023/10/06 00:20:48;;;;;;;12.02;4.50;;;16.90;99.90;;;;;;4996764;28;20089;-62
2023/10/06 00:23:15;;;;;;;11.20;4.97;;;16.90;99.90;;;;;;4996722;28;20026;-61
2023/10/06 00:25:44;;;;;;;12.30;4.68;;;16.90;99.90;;;;;;4996342;28;20026;-63
2023/10/06 00:28:20;;;;;;;11.32;5.00;;;16.90;99.90;;;;;;4996738;28;20027;-62
2023/10/06 00:30:56;;;;;;;10.07;5.65;;;16.90;99.90;;;;;;4996547;28;20037;-61
2023/10/06 00:33:32;;;;;;;11.60;4.68;;;16.90;99.90;;;;;;4996515;28;20054;-61
2023/10/06 00:35:58;;;;;;;10.60;5.25;;;16.90;99.90;;;;;;4994901;28;20029;-61
2023/10/06 00:38:23;;;;;;;9.93;5.18;;;16.80;99.90;;;;;;4996461;28;20034;-62
2023/10/06 00:40:52;;;;;;;10.45;5.20;;;16.80;99.90;;;;;;4996082;28;20524;-62
2023/10/06 00:43:38;;;;;;;10.88;5.03;;;16.80;99.90;;;;;;4996472;28;20121;-62
2023/10/06 00:46:07;;;;;;;10.63;5.15;;;16.90;99.90;;;;;;4996095;28;20042;-62
2023/10/06 00:48:40;;;;;;;12.70;4.97;;;16.80;99.90;;;;;;4996393;28;20384;-61
2023/10/06 00:51:22;;;;;;;8.05;5.00;;;16.70;99.90;;;;;;4996092;28;20504;-61
2023/10/06 00:53:56;;;;;;;11.50;5.05;;;16.80;99.90;;;;;;4995951;28;20015;-61
2023/10/06 00:56:25;;;;;;;11.07;5.68;;;16.70;99.90;;;;;;4995996;28;20033;-62
2023/10/06 00:58:54;;;;;;;11.40;5.03;;;16.70;99.90;;;;;;4996293;28;20022;-61
2023/10/06 01:01:21;;;;;;;9.82;5.10;;;16.60;99.90;;;;;;4995679;28;20480;-75
2023/10/06 01:04:06;;;;;;;11.15;5.38;;;16.70;99.90;;;;;;4995914;28;20039;-62
2023/10/06 01:06:35;;;;;;;9.55;4.72;;;16.70;99.90;;;;;;4995759;28;20042;-62
2023/10/06 01:09:13;;;;;;;14.23;5.60;;;16.70;99.90;;;;;;4995875;28;20556;-62
2023/10/06 01:11:51;;;;;;;11.93;5.28;;;16.70;99.90;;;;;;4995643;28;20479;-61
2023/10/06 01:14:27;;;;;;;12.77;5.68;;;16.70;99.90;;;;;;4995507;28;20029;-62
2023/10/06 01:17:08;;;;;;;12.00;5.75;;;16.70;99.90;;;;;;4995988;28;20019;-62
2023/10/06 01:19:33;;;;;;;11.93;5.63;;;16.70;99.90;;;;;;4995783;28;20018;-62
2023/10/06 01:22:15;;;;;;;13.75;5.97;;;16.60;99.90;;;;;;4995525;28;20494;-62
2023/10/06 01:24:41;;;;;;;11.05;5.30;;;16.60;99.90;;;;;;4995591;28;20026;-62
2023/10/06 01:27:07;;;;;;;11.15;5.95;;;16.60;99.90;;;;;;4995682;28;20023;-61
2023/10/06 01:29:37;;;;;;;8.68;4.75;;;16.60;99.90;;;;;;4995524;28;20138;-62
2023/10/06 01:32:06;;;;;;;13.32;6.47;;;16.60;99.90;;;;;;4995503;28;20034;-62
2023/10/06 01:34:37;;;;;;;12.55;6.22;;;16.60;99.90;;;;;;4995438;28;20104;-62
2023/10/06 01:37:04;;;;;;;10.70;5.43;;;16.60;99.90;;;;;;4995165;28;20443;-62
2023/10/06 01:39:35;;;;;;;7.80;5.88;;;16.60;99.90;;;;;;4995214;28;20487;-61
2023/10/06 01:42:07;;;;;;;8.55;5.80;;;16.60;99.90;;;;;;4994973;28;20038;-61
2023/10/06 01:44:34;;;;;;;9.82;5.82;;;16.60;99.90;;;;;;4995252;28;20023;-61
2023/10/06 01:47:00;;;;;;;11.73;6.40;;;16.60;99.90;;;;;;4995117;28;20032;-62
2023/10/06 01:49:27;;;;;;;10.60;6.07;;;16.50;99.90;;;;;;4995029;28;20018;-62
2023/10/06 01:51:53;;;;;;;8.90;5.65;;;16.50;99.90;;;;;;4994714;28;20026;-62
2023/10/06 01:54:25;;;;;;;12.05;6.28;;;16.50;99.90;;;;;;4995125;28;20097;-61
2023/10/06 01:56:53;;;;;;;14.00;5.85;;;16.50;99.90;;;;;;4994925;28;20423;-61
2023/10/06 01:59:20;;;;;;;8.70;5.32;;;16.50;99.90;;;;;;4995027;28;20034;-61
2023/10/06 02:01:47;;;;;;;9.35;5.72;;;16.50;99.90;;;;;;4994523;28;20034;-62
2023/10/06 02:04:19;;;;;;;10.73;6.07;;;16.50;99.90;;;;;;4994853;28;20037;-62
2023/10/06 02:06:45;;;;;;;9.88;5.45;;;16.50;99.90;;;;;;5012604;28;20041;-61
2023/10/06 02:09:21;;;;;;;10.32;5.40;;;16.50;99.90;;;;;;5013971;28;20018;-61
2023/10/06 02:11:50;;;;;;;12.70;6.20;;;16.50;99.90;;;;;;5013986;28;20030;-61
2023/10/06 02:14:17;;;;;;;9.57;5.00;;;16.50;99.90;;;;;;5014223;28;20025;-61
2023/10/06 02:16:46;;;;;;;10.38;5.72;;;16.50;99.90;;;;;;5014294;28;20022;-62
2023/10/06 02:19:16;;;;;;;10.45;5.97;;;16.40;99.90;;;;;;5014246;28;20501;-62
2023/10/06 02:21:42;;;;;;;12.43;5.63;;;16.40;99.90;;;;;;5013894;28;20030;-61
2023/10/06 02:24:08;;;;;;;13.05;5.55;;;16.40;99.90;;;;;;5014028;28;20097;-62
2023/10/06 02:26:37;;;;;;;8.00;5.18;;;16.40;99.90;;;;;;5013445;28;20525;-62
2023/10/06 02:29:11;;;;;;;10.75;5.55;;;16.40;99.90;;;;;;5014088;28;20022;-62
2023/10/06 02:31:36;;;;;;;10.38;5.80;;;16.40;99.90;;;;;;5014209;28;20021;-61
2023/10/06 02:34:04;;;;;;;11.73;5.70;;;16.40;99.90;;;;;;5013752;28;20033;-62
2023/10/06 02:36:31;;;;;;;11.27;5.60;;;16.40;99.90;;;;;;5013481;28;20037;-62
2023/10/06 02:38:56;;;;;;;8.50;5.30;;;16.40;99.90;;;;;;5013783;28;20068;-62
2023/10/06 02:41:29;;;;;;;8.95;5.38;;;16.40;99.90;;;;;;5013773;28;20030;-62
2023/10/06 02:43:57;;;;;;;11.95;5.30;;;16.40;99.90;;;;;;5013604;28;20395;-62
2023/10/06 02:46:25;;;;;;;9.43;4.93;;;16.40;99.90;;;;;;5013741;28;20010;-62
2023/10/06 02:48:51;;;;;;;9.10;4.97;;;16.40;99.90;;;;;;5013675;28;20033;-61
2023/10/06 02:51:41;;;;;;;11.57;5.70;;;16.30;99.90;;;;;;5013327;28;20022;-66
2023/10/06 02:54:27;;;;;;;7.93;5.25;;;16.30;99.90;;;;;;5013493;28;20057;-61
2023/10/06 02:56:55;;;;;;;11.18;5.15;;;16.30;99.90;;;;;;5013779;28;20096;-61
2023/10/06 02:59:21;;;;;;;14.43;5.35;;;16.30;99.90;;;;;;5013624;28;20400;-61
2023/10/06 03:02:00;;;;;;;11.68;4.80;;;16.30;99.90;;;;;;5013381;28;20026;-62
2023/10/06 03:04:27;;;;;;;9.88;5.10;;;16.30;99.90;;;;;;5012911;28;20026;-63
2023/10/06 03:06:59;;;;;;;8.75;4.90;;;16.30;99.90;;;;;;5013478;28;20440;-61
2023/10/06 03:09:37;;;;;;;10.27;5.40;;;16.30;99.90;;;;;;5013490;28;20030;-62
2023/10/06 03:12:49;;;;;;;9.40;4.88;;;16.20;99.90;;;;;;5013450;28;20386;-61
2023/10/06 03:14:56;;;;;;;;;;;16.20;99.90;;;;;;5010647;28;20041;-61
2023/10/06 03:17:23;;;;;;;9.10;4.10;;;16.20;99.90;;;;;;5013656;28;19959;-62
2023/10/06 03:22:37;;;;;;;11.93;4.28;;;16.20;99.90;;;;;;5013470;28;20064;-62
2023/10/06 03:25:14;;;;;;;8.80;4.03;;;16.20;99.90;;;;;;5013131;28;20022;-62
2023/10/06 03:27:41;;;;;;;6.45;4.28;;;16.20;99.90;;;;;;5010532;28;20088;-61
2023/10/06 03:30:33;;;;;;;9.57;4.65;;;16.20;99.90;;;;;;5001622;28;20033;-61
2023/10/06 03:32:54;;;;;;;9.05;4.40;;;16.20;99.90;;;;;;5006325;28;20526;-61
2023/10/06 03:35:36;;;;;;;10.07;4.82;;;16.20;99.90;;;;;;5004431;28;20022;-62
2023/10/06 03:38:36;;;;;;;9.18;3.95;;;16.20;99.90;;;;;;5006284;28;20116;-62
2023/10/06 03:46:08;;;;;;;8.77;3.72;;;16.20;99.90;;;;;;5013655;28;20033;-60
2023/10/06 03:48:34;;;;;;;8.90;4.00;;;16.20;99.90;;;;;;4999718;28;20116;-61
2023/10/06 03:51:00;;;;;;;10.43;3.95;;;16.20;99.90;;;;;;5015327;28;20026;-62
2023/10/06 03:53:29;;;;;;;11.15;4.40;;;16.10;99.90;;;;;;5016913;28;20041;-72
2023/10/06 03:55:57;;;;;;;12.90;4.25;;;16.20;99.90;;;;;;5012354;28;20030;-61
2023/10/06 03:58:29;;;;;;;9.52;4.13;;;16.20;99.90;;;;;;5007697;28;20037;-62
2023/10/06 04:00:55;;;;;;;9.07;4.63;;;16.10;99.90;;;;;;5016677;28;20053;-62
2023/10/06 04:03:21;;;;;;;7.65;3.58;;;16.10;99.90;;;;;;5011286;28;20073;-61
2023/10/06 04:05:48;;;;;;;8.88;3.90;;;16.10;99.90;;;;;;4996764;28;20037;-61
2023/10/06 04:08:19;;;;;;;12.32;4.35;;;16.10;99.90;;;;;;5008204;28;20030;-61
2023/10/06 04:10:48;;;;;;;11.65;4.28;;;16.10;99.90;;;;;;4996826;28;20066;-61
2023/10/06 04:13:18;;;;;;;10.15;4.20;;;16.10;99.90;;;;;;4997227;28;20105;-61
2023/10/06 04:15:49;;;;;;;6.95;3.60;;;16.10;99.90;;;;;;5000157;28;20029;-62
2023/10/06 04:18:17;;;;;;;7.88;4.25;;;16.10;99.90;;;;;;5016279;28;20026;-61
2023/10/06 04:20:44;;;;;;;13.18;4.05;;;16.10;99.90;;;;;;5016357;28;20022;-62
2023/10/06 04:23:13;;;;;;;6.53;3.47;;;16.10;99.90;;;;;;5016360;28;20080;-61
2023/10/06 04:25:40;;;;;;;9.15;3.50;;;16.40;99.90;;;;;;5012158;28;20089;-62
2023/10/06 04:28:11;;;;;;;7.50;3.65;;;16.60;99.90;;;;;;4997882;28;20472;-61
2023/10/06 04:30:38;;;;;;;8.52;3.78;;;16.70;99.90;;;;;;4999717;28;20053;-61
2023/10/06 04:33:04;;;;;;;7.10;3.25;;;16.70;99.90;;;;;;5002549;28;20073;-62
2023/10/06 04:35:34;;;;;;;8.30;3.13;;;16.80;99.90;;;;;;5012979;28;20492;-62
2023/10/06 04:38:01;;;;;;;5.65;3.45;;;16.80;99.90;;;;;;5016056;28;20062;-61
2023/10/06 04:40:27;;;;;;;6.18;2.92;;;16.80;99.90;;;;;;5016138;28;20097;-62
2023/10/06 04:42:54;;;;;;;10.10;3.28;;;16.80;99.90;;;;;;5015950;28;20471;-62
2023/10/06 04:45:19;;;;;;;5.57;3.40;;;16.90;99.90;;;;;;4999052;28;20074;-63
2023/10/06 04:47:45;;;;;;;9.43;3.45;;;16.90;99.90;;;;;;5006005;28;20452;-62
2023/10/06 04:50:15;;;;;;;11.20;3.58;;;16.90;99.90;;;;;;4994327;28;20034;-62
2023/10/06 04:52:46;;;;;;;7.00;2.85;;;16.90;99.90;;;;;;4998235;28;20046;-62
2023/10/06 04:55:13;;;;;;;7.18;3.00;;;16.90;99.90;;;;;;5015875;28;20021;-61
2023/10/06 04:57:43;;;;;;;6.53;3.53;;;16.90;99.90;;;;;;5015765;28;20057;-61
2023/10/06 05:00:19;;;;;;;7.57;2.60;;;16.90;99.90;;;;;;5012198;28;20157;-61
2023/10/06 05:02:54;;;;;;;11.13;2.92;;;16.90;99.90;;;;;;5001214;28;20039;-65
2023/10/06 05:05:23;;;;;;;10.10;3.50;;;17.00;99.90;;;;;;5005173;28;20736;-65
2023/10/06 05:07:51;;;;;;;6.72;3.28;;;17.30;99.90;;;;;;5022147;28;20499;-65
2023/10/06 05:10:21;;;;;;;7.43;3.50;;;17.40;99.70;;;;;;4995261;28;20439;-65
2023/10/06 05:12:50;;;;;;;11.38;3.88;;;17.40;99.80;;;;;;4997881;28;20026;-64
2023/10/06 05:15:30;;;;;;;9.20;3.53;;;17.40;99.80;;;;;;5002174;28;20104;-63
2023/10/06 05:17:56;;;;;;;7.78;3.00;;;17.40;99.60;;;;;;5010133;28;20037;-64
2023/10/06 05:20:30;;;;;;;11.27;3.38;;;17.40;99.30;;;;;;5014821;28;20141;-65
2023/10/06 05:23:02;;;;;;;8.80;2.70;;;17.40;99.20;;;;;;5013707;28;20045;-66
2023/10/06 05:25:29;;;;;;;7.95;4.10;;;17.40;99.40;;;;;;5002221;28;20456;-77
2023/10/06 05:28:00;;;;;;;7.55;3.85;;;17.40;99.50;;;;;;5013765;28;20125;-75
2023/10/06 05:30:27;;;;;;;9.73;3.30;;;17.40;99.10;;;;;;5004301;28;20442;-69
2023/10/06 05:32:57;;;;;;;7.70;3.60;;;17.40;99.10;;;;;;4995427;28;20305;-67
2023/10/06 05:35:26;;;;;;;6.75;3.08;;;17.40;99.10;;;;;;4995402;28;20030;-72
2023/10/06 05:37:53;;;;;;;7.35;3.08;;;17.40;99.40;;;;;;4998498;28;20105;-66
2023/10/06 05:40:20;;;;;;;7.07;3.10;;;17.40;99.30;;;;;;5008382;28;20033;-66
2023/10/06 05:42:49;;;;;;;5.93;2.55;;;17.40;99.10;;;;;;5003283;28;20399;-66
2023/10/06 05:45:18;;;;;;;7.47;2.78;;;17.40;99.30;;;;;;4997519;28;20022;-64
2023/10/06 05:47:50;;;;;;;10.00;3.10;;;17.40;99.20;;;;;;5013591;28;20045;-72
2023/10/06 05:50:21;;;;;;;6.13;2.70;;;17.40;99.20;;;;;;5014463;28;20018;-69
2023/10/06 05:52:51;;;;;;;8.00;3.50;;;17.40;99.20;;;;;;5014505;28;20109;-66
2023/10/06 05:55:19;;;;;;;8.45;3.67;;;17.40;99.20;;;;;;5007330;28;20034;-69
2023/10/06 05:57:52;;;;;;;11.65;4.30;;;17.50;99.10;;;;;;4994797;28;20074;-72
2023/10/06 06:00:24;;;;;;;9.48;3.70;;;17.40;98.80;;;;;;4995308;28;20098;-66
2023/10/06 06:02:53;;;;;;;;;;;17.40;99.10;;;;;;5005402;28;20506;-66
2023/10/06 06:05:20;;;;;;;6.63;3.00;;;17.40;98.90;;;;;;5003231;28;19913;-65
2023/10/06 06:07:46;;;;;;;8.73;3.22;;;17.40;99.00;;;;;;5013172;28;20028;-68
2023/10/06 06:10:15;;;;;;;11.57;2.80;;;17.40;98.90;;;;;;5005519;28;20030;-66
2023/10/06 06:12:41;;;;;;;9.43;3.70;;;17.40;99.10;;;;;;5003434;28;20543;-66
2023/10/06 06:15:08;;;;;;;6.53;3.20;;;17.40;99.00;;;;;;5009410;28;20026;-65
2023/10/06 06:17:34;;;;;;;8.98;3.80;;;17.40;98.90;;;;;;5003723;28;20030;-68
2023/10/06 06:20:07;;;;;;;7.05;3.22;;;17.40;99.00;;;;;;4994593;28;20106;-65
2023/10/06 06:22:36;;;;;;;7.35;3.22;;;17.40;99.10;;;;;;4999648;28;20041;-65
2023/10/06 06:25:05;;;;;;;7.68;3.30;;;17.40;99.10;;;;;;4998491;28;20034;-72
2023/10/06 06:27:31;;;;;;;9.18;3.30;;;17.40;99.10;;;;;;4997490;28;20178;-66
2023/10/06 06:29:57;;;;;;;9.82;4.47;;;17.40;98.80;;;;;;5009558;28;20032;-66
2023/10/06 06:32:25;;;;;;;6.78;3.90;;;17.40;98.90;;;;;;4997464;28;20023;-65
2023/10/06 06:34:51;;;;;;;8.45;3.58;;;17.50;98.90;;;;;;4995375;28;20019;-65
2023/10/06 06:37:17;;;;;;;7.18;3.50;;;17.50;98.90;;;;;;4991846;28;20385;-65
2023/10/06 06:39:44;;;;;;;10.80;3.60;;;17.50;98.90;;;;;;4992960;28;20018;-65
2023/10/06 06:42:10;;;;;;;9.05;3.75;;;17.40;99.00;;;;;;4993093;28;20456;-65
2023/10/06 06:44:36;;;;;;;10.10;3.63;;;17.50;99.00;;;;;;4991781;28;20068;-65
2023/10/06 06:47:03;;;;;;;10.48;3.75;;;17.40;99.10;;;;;;4997344;28;20105;-65
2023/10/06 06:49:28;;;;;;;6.65;2.90;;;17.40;99.10;;;;;;5004927;28;20052;-65
2023/10/06 06:51:58;;;;;;;8.95;3.40;;;17.40;99.30;;;;;;5009181;28;20476;-65
2023/10/06 06:54:24;;;;;;;8.13;3.67;;;17.40;99.30;;;;;;5013384;28;20022;-65
2023/10/06 06:56:50;;;;;;;7.47;3.33;;;17.40;99.20;;;;;;5000479;28;20030;-66
2023/10/06 06:59:17;;;;;;;7.80;2.70;;;17.50;99.30;;;;;;5013377;28;20036;-65
2023/10/06 07:01:42;;;;;;;9.65;3.20;;;17.50;99.30;;;;;;5013373;28;20030;-65
2023/10/06 07:04:08;;;;;;;6.80;2.88;;;17.50;99.30;;;;;;5007269;28;20033;-65
2023/10/06 07:06:34;;;;;;;6.60;3.08;;;17.50;99.30;;;;;;5001549;28;20084;-65
2023/10/06 07:08:59;;;;;;;7.22;3.10;;;17.50;99.20;;;;;;5013287;28;20018;-65
2023/10/06 07:11:27;;;;;;;6.50;3.35;;;17.50;99.20;;;;;;5012826;28;20391;-65
2023/10/06 07:13:55;;;;;;;8.88;3.55;;;17.60;99.20;;;;;;5013167;28;20061;-65
2023/10/06 07:16:24;;;;;;;8.25;3.13;;;17.60;99.20;;;;;;5013153;28;20109;-69
2023/10/06 07:18:50;;;;;;;7.85;3.13;;;17.60;99.20;;;;;;5012996;28;20030;-67
2023/10/06 07:21:17;;;;;;;8.73;3.25;;;17.60;99.20;;;;;;5013245;28;20084;-65
2023/10/06 07:23:43;;;;;;;8.27;3.90;;;17.60;99.30;;;;;;5010770;28;20099;-69
2023/10/06 07:26:10;;;;;;;6.35;3.03;;;17.60;99.30;;;;;;5001902;28;20023;-65
2023/10/06 07:28:39;;;;;;;7.47;3.30;;;17.70;99.40;;;;;;4993686;28;20068;-66
2023/10/06 07:31:24;;;;;;;9.63;3.78;;;17.70;99.30;;;;;;4993538;28;20114;-69
2023/10/06 07:33:54;;;;;;;9.90;3.05;;;17.80;99.20;;;;;;4993493;28;20030;-67
2023/10/06 07:36:20;;;;;;;8.43;3.72;;;17.80;99.20;;;;;;4992277;28;20105;-66
2023/10/06 07:38:46;;;;;;;9.05;3.38;;;17.80;99.20;;;;;;4993524;28;20523;-65
2023/10/06 07:41:23;;;;;;;12.73;3.20;;;17.80;99.20;;;;;;4993097;28;20114;-66
2023/10/06 07:43:49;;;;;;;6.97;3.80;;;17.90;99.30;;;;;;4993518;28;20027;-70
2023/10/06 07:46:16;;;;;;;7.07;3.50;;;17.80;99.30;;;;;;4993461;28;20026;-66
2023/10/06 07:48:43;;;;;;;11.07;4.20;;;17.80;99.40;;;;;;4993564;28;20030;-65
2023/10/06 07:51:09;;;;;;;11.65;3.90;;;17.80;99.40;;;;;;4993151;28;20050;-65
2023/10/06 07:53:38;;;;;;;9.95;4.03;;;17.80;99.50;;;;;;4993313;28;20484;-67
2023/10/06 07:56:07;;;;;;;8.07;3.42;;;17.80;99.50;;;;;;4993445;28;20488;-65
2023/10/06 07:58:37;;;;;;;7.28;3.33;;;17.80;99.60;;;;;;4993538;28;20027;-66
2023/10/06 08:01:05;;;;;;;9.68;3.78;;;17.80;99.60;;;;;;4993303;28;20021;-65
2023/10/06 08:03:32;;;;;;;8.68;3.53;;;17.80;99.70;;;;;;4994132;28;20035;-68
2023/10/06 08:06:05;;;;;;;8.05;3.53;;;17.90;99.80;;;;;;5008491;28;20044;-85
2023/10/06 08:08:35;;;;;;;10.43;3.40;;;17.80;99.80;;;;;;5003663;28;20088;-68
2023/10/06 08:11:02;;;;;;;10.80;4.22;;;17.80;99.90;;;;;;5013380;28;20030;-65
2023/10/06 08:13:35;;;;;;;10.07;3.40;;;17.90;99.90;;;;;;5006503;28;20026;-64
2023/10/06 08:16:06;;;;;;;9.45;4.22;;;17.80;99.90;;;;;;5011841;28;20529;-69
2023/10/06 08:18:33;;;;;;;11.65;4.78;;;17.90;99.90;;;;;;5016841;28;20033;-65
2023/10/06 08:21:37;;;;;;;8.90;4.28;;;17.80;99.90;;;;;;5012478;28;20026;-69
2023/10/06 08:24:05;;;;;;;6.82;3.67;;;17.80;99.90;;;;;;4982583;28;20329;-66
2023/10/06 08:26:36;;;;;;;9.27;4.38;;;17.60;99.90;;;;;;4995529;28;20034;-67
2023/10/06 08:29:07;;;;;;;9.50;4.73;;;17.60;99.90;;;;;;4995381;28;20472;-70
2023/10/06 08:31:34;;;;;;;12.07;4.30;;;17.60;99.90;;;;;;4993858;28;20299;-64
2023/10/06 08:34:05;;;;;;;10.23;4.07;;;17.60;99.90;;;;;;4991113;28;20023;-65
2023/10/06 08:36:50;;;;;;;8.40;3.10;;;17.50;99.90;;;;;;4990549;28;20428;-65
2023/10/06 08:39:20;;;;;;;10.60;3.67;;;17.50;99.90;;;;;;4977576;28;20038;-64
2023/10/06 08:41:52;;;;;;;8.43;3.28;;;17.50;99.90;;;;;;4982970;28;20133;-66
2023/10/06 08:44:20;;;;;;;9.13;4.22;;;17.50;99.90;;;;;;4990750;28;20014;-64
2023/10/06 08:46:47;;;;;;;8.00;3.55;;;17.50;99.90;;;;;;4984619;28;20376;-64
2023/10/06 08:49:19;;;;;;;6.50;2.90;;;17.50;99.90;;;;;;4989917;28;20027;-66
2023/10/06 08:51:50;;;;;;;9.90;3.50;;;17.50;99.90;;;;;;4991046;28;20030;-64
2023/10/06 08:54:18;;;;;;;11.45;4.03;;;17.50;99.90;;;;;;4988339;28;20035;-64
2023/10/06 08:56:46;;;;;;;10.20;3.53;;;17.50;99.90;;;;;;4994814;28;20053;-64
2023/10/06 08:59:16;;;;;;;8.68;2.80;;;17.60;99.90;;;;;;4986957;28;20102;-63
2023/10/06 09:01:44;;;;;;;8.77;4.00;;;17.50;99.90;;;;;;4986611;28;20467;-64
2023/10/06 09:04:11;;;;;;;9.25;4.00;;;17.60;99.90;;;;;;4993245;28;20037;-65
2023/10/06 09:07:08;;;;;;;7.53;3.60;;;17.60;99.90;;;;;;4994169;28;20033;-63
2023/10/06 09:09:47;;;;;;;11.80;4.05;;;17.60;99.90;;;;;;4985190;28;20034;-64
2023/10/06 09:12:25;;;;;;;14.55;4.40;;;17.60;99.90;;;;;;4991226;28;20023;-64
2023/10/06 09:14:56;;;;;;;5.82;2.78;;;17.70;99.90;;;;;;4994457;28;20022;-65
2023/10/06 09:17:33;;;;;;;10.35;3.72;;;17.60;99.90;;;;;;4993843;28;20034;-64
2023/10/06 09:19:59;;;;;;;9.05;4.00;;;17.70;99.90;;;;;;4993451;28;20034;-65
2023/10/06 09:22:30;;;;;;;9.00;2.83;;;17.70;99.90;;;;;;4993678;28;20418;-64
2023/10/06 09:25:04;;;;;;;7.35;3.63;;;17.70;99.90;;;;;;4989861;28;20018;-66
2023/10/06 09:27:32;;;;;;;8.25;3.38;;;17.70;99.90;;;;;;4993581;28;20029;-65
2023/10/06 09:30:20;;;;;;;7.85;3.78;;;17.80;99.90;;;;;;4983033;28;20031;-67
2023/10/06 09:32:49;;;;;;;6.72;3.03;;;17.80;99.90;;;;;;4981331;28;20029;-72
2023/10/06 09:35:24;;;;;;;9.57;3.50;;;17.80;99.90;;;;;;4992610;28;20022;-78
2023/10/06 09:38:08;;;;;;;9.95;3.80;;;17.80;99.90;;;;;;5006648;28;20022;-75
2023/10/06 09:40:46;;;;;;;9.20;3.50;;;17.80;99.90;;;;;;4990440;28;20392;-70
2023/10/06 09:43:34;;;;;;;8.38;2.90;;;17.80;99.90;;;;;;4996983;28;20065;-72
2023/10/06 09:46:22;;;;;;;7.78;3.60;;;17.80;99.90;;;;;;4983796;28;20064;-71
2023/10/06 09:48:51;;;;;;;8.55;3.55;;;17.90;99.90;;;;;;4991480;28;20117;-70
2023/10/06 09:52:01;;;;;;;9.35;3.92;;;17.90;99.90;;;;;;4988885;28;20125;-65
2023/10/06 09:54:50;;;;;;;7.45;3.25;;;17.90;99.90;;;;;;4989759;28;20388;-68
2023/10/06 09:57:18;;;;;;;8.18;3.65;;;17.90;99.90;;;;;;4988288;28;20037;-67
2023/10/06 09:59:49;;;;;;;10.18;4.15;;;17.90;99.90;;;;;;4983528;28;20090;-77
2023/10/06 10:02:20;;;;;;;8.43;3.72;;;17.90;99.90;;;;;;4984155;28;20030;-80
2023/10/06 10:04:48;;;;;;;8.05;3.70;;;18.00;99.90;;;;;;4989071;28;20037;-79
2023/10/06 10:07:16;;;;;;;8.85;3.60;;;18.00;99.90;;;;;;4990679;28;20027;-79
2023/10/06 10:09:43;;;;;;;8.38;3.55;;;18.00;99.90;;;;;;4991912;28;20026;-71
2023/10/06 10:12:52;;;;;;;7.20;2.90;;;18.00;99.90;;;;;;4992580;28;20566;-68
2023/10/06 10:21:48;;;;;;;7.70;3.25;;;18.10;99.90;;;;;;4990172;28;20034;-68
2023/10/06 10:28:38;;;;;;;9.60;3.75;;;18.10;99.90;;;;;;4990189;28;20455;-65
2023/10/06 10:31:13;;;;;;;12.20;3.13;;;18.10;99.90;;;;;;4992352;28;20101;-65
2023/10/06 10:33:42;;;;;;;13.20;3.38;;;18.10;99.90;;;;;;4987005;28;20100;-65
2023/10/06 10:36:23;;;;;;;12.30;3.60;;;18.20;99.90;;;;;;4992366;28;20026;-67
2023/10/06 10:39:09;;;;;;;9.18;3.30;;;18.20;99.90;;;;;;4977991;28;20030;-65
2023/10/06 10:42:09;;;;;;;8.55;3.33;;;18.20;99.90;;;;;;4993358;28;20117;-69
2023/10/06 10:44:37;;;;;;;8.43;3.15;;;18.20;99.90;;;;;;4971255;28;20118;-66
2023/10/06 10:47:58;;;;;;;10.75;3.28;;;18.20;99.90;;;;;;5000656;28;20035;-68
2023/10/06 10:51:10;;;;;;;9.18;3.50;;;18.30;99.90;;;;;;4985994;28;20041;-64
2023/10/06 10:54:26;;;;;;;5.50;2.40;;;18.30;99.90;;;;;;5001348;28;20038;-65
2023/10/06 10:57:01;;;;;;;7.15;2.78;;;18.30;99.90;;;;;;4970063;28;20460;-68
2023/10/06 11:06:17;;;;;;;10.85;4.10;;;18.40;99.90;;;;;;4988535;28;20077;-75
2023/10/06 11:08:46;;;;;;;10.13;3.25;;;18.40;99.90;;;;;;4990230;28;20133;-68
2023/10/06 11:11:16;;;;;;;8.30;2.70;;;18.50;99.90;;;;;;4978964;28;20034;-71
2023/10/06 11:13:58;;;;;;;8.23;2.80;;;18.50;99.90;;;;;;4989788;28;20468;-70
2023/10/06 11:16:24;;;;;;;10.65;3.80;;;18.50;99.90;;;;;;4989645;28;20105;-70
2023/10/06 11:18:52;;;;;;;8.75;3.22;;;18.50;99.90;;;;;;5006818;28;20030;-67
2023/10/06 11:21:26;;;;;;;10.02;3.33;;;18.50;99.90;;;;;;4993076;28;20025;-67
2023/10/06 11:23:53;;;;;;;9.30;3.40;;;18.50;99.90;;;;;;4992678;28;20113;-70
2023/10/06 11:26:33;;;;;;;8.43;3.53;;;18.60;99.90;;;;;;4989098;28;20476;-70
2023/10/06 11:29:01;;;;;;;8.93;3.47;;;18.60;99.90;;;;;;4992496;23;20059;-68
2023/10/06 11:31:28;;;;;;;8.45;3.75;;;18.60;99.90;;;;;;4984745;23;20046;-69
2023/10/06 11:33:55;;;;;;;9.57;3.20;;;18.60;99.90;;;;;;4990072;28;20030;-68
2023/10/06 11:36:21;;;;;;;12.00;3.30;;;18.70;99.90;;;;;;5006610;28;20018;-66
2023/10/06 11:38:47;;;;;;;9.25;4.00;;;18.70;99.90;;;;;;5000663;28;20045;-68
2023/10/06 11:41:22;;;;;;;9.77;3.72;;;18.80;99.90;;;;;;5002486;28;20026;-68
2023/10/06 11:43:55;;;;;;;10.90;3.58;;;18.80;99.90;;;;;;4994106;28;20045;-68
2023/10/06 11:46:21;;;;;;;6.95;3.15;;;18.80;99.90;;;;;;5001958;28;20026;-68
2023/10/06 11:48:47;;;;;;;11.00;3.13;;;18.80;99.90;;;;;;4986339;28;20402;-68
2023/10/06 11:51:13;;;;;;;7.40;3.30;;;18.80;99.90;;;;;;4994229;28;20565;-69
2023/10/06 11:53:42;;;;;;;8.27;3.30;;;18.80;99.90;;;;;;4995337;28;20034;-67
2023/10/06 11:56:13;;;;;;;9.25;3.50;;;18.80;99.90;;;;;;4992204;28;20026;-67
2023/10/06 11:58:40;;;;;;;6.73;3.17;;;18.80;99.90;;;;;;5006215;28;20022;-65
2023/10/06 12:01:32;;;;;;;8.30;3.45;;;18.90;99.90;;;;;;4993498;28;20037;-68
2023/10/06 12:04:03;;;;;;;7.25;2.83;;;18.90;99.90;;;;;;5004724;28;20035;-68
2023/10/06 12:06:39;;;;;;;8.70;3.10;;;18.90;99.90;;;;;;5002368;28;20030;-68
2023/10/06 12:09:08;;;;;;;8.85;3.33;;;18.90;99.90;;;;;;4997714;28;20022;-68
2023/10/06 12:11:33;;;;;;;8.40;3.45;;;18.90;99.90;;;;;;4996506;28;20041;-70
2023/10/06 12:13:59;;;;;;;8.20;3.08;;;18.90;99.90;;;;;;5001543;28;20077;-68
2023/10/06 12:16:25;;;;;;;9.07;3.35;;;18.90;99.90;;;;;;5011433;28;20038;-68
2023/10/06 12:18:51;;;;;;;9.35;3.33;;;19.00;99.90;;;;;;4997367;28;20080;-67
2023/10/06 12:21:17;;;;;;;8.68;4.10;;;19.00;99.90;;;;;;5003848;28;20026;-67
2023/10/06 12:23:48;;;;;;;7.55;3.08;;;19.10;99.90;;;;;;5004896;28;20026;-68
2023/10/06 12:26:14;;;;;;;10.93;3.42;;;19.00;99.90;;;;;;5003607;28;20443;-68
2023/10/06 12:28:43;;;;;;;10.27;3.60;;;19.00;99.90;;;;;;5003039;28;20564;-68
2023/10/06 12:31:11;;;;;;;8.77;2.80;;;19.10;99.90;;;;;;5010840;28;20037;-67
2023/10/06 12:33:38;;;;;;;8.52;3.63;;;19.00;99.90;;;;;;5019339;28;20044;-69
2023/10/06 12:36:08;;;;;;;10.07;2.65;;;19.10;99.90;;;;;;5027336;28;20034;-67
2023/10/06 12:38:36;;;;;;;10.40;3.30;;;19.10;99.90;;;;;;5016437;28;20486;-68
2023/10/06 12:41:07;;;;;;;10.98;3.33;;;19.20;99.90;;;;;;5022518;28;20025;-68
2023/10/06 12:43:35;;;;;;;8.23;3.10;;;19.20;99.90;;;;;;5023135;28;20117;-67
2023/10/06 12:46:05;;;;;;;8.13;3.38;;;19.20;99.90;;;;;;5028056;28;20709;-68
2023/10/06 12:48:32;;;;;;;7.03;2.92;;;19.20;99.90;;;;;;5025070;28;20122;-68
2023/10/06 12:50:58;;;;;;;7.60;3.38;;;19.20;99.90;;;;;;5020767;28;20088;-68
2023/10/06 12:53:24;;;;;;;11.38;3.78;;;19.20;99.90;;;;;;5022373;28;20101;-68
2023/10/06 12:55:56;;;;;;;6.88;2.80;;;19.30;99.90;;;;;;5030129;28;20021;-67
2023/10/06 12:58:22;;;;;;;11.43;3.15;;;19.30;99.90;;;;;;5022197;28;20030;-67
2023/10/06 13:00:48;;;;;;;12.40;4.43;;;19.30;99.90;;;;;;5021654;28;20040;-69
2023/10/06 13:03:16;;;;;;;10.32;3.53;;;19.30;99.90;;;;;;5017468;28;20038;-68
2023/10/06 13:05:46;;;;;;;6.55;3.28;;;19.40;99.90;;;;;;5017118;28;20029;-69
2023/10/06 13:08:17;;;;;;;8.10;3.08;;;19.40;99.90;;;;;;5022080;28;20036;-69
2023/10/06 13:10:45;;;;;;;11.35;3.42;;;19.40;99.90;;;;;;5021769;28;20022;-68
2023/10/06 13:13:12;;;;;;;11.40;3.45;;;19.40;99.90;;;;;;5024338;28;20029;-68
2023/10/06 13:15:40;;;;;;;11.20;4.03;;;19.60;98.20;;;;;;5014036;28;20493;-67
2023/10/06 13:18:08;;;;;;;7.40;2.40;;;19.70;97.80;;;;;;5016229;28;20026;-68
2023/10/06 13:20:34;;;;;;;8.95;3.05;;;19.80;98.50;;;;;;5008047;28;20026;-68
2023/10/06 13:23:00;;;;;;;10.43;3.58;;;19.60;99.70;;;;;;5026058;28;20428;-68
2023/10/06 13:25:27;;;;;;;14.43;4.13;;;19.50;99.90;;;;;;5034138;28;20461;-68
2023/10/06 13:27:53;;;;;;;10.45;3.03;;;19.50;99.90;;;;;;5041886;22;20108;-68